sensor_id;sensor_type;location;lat;lon;timestamp;P1;durP1;ratioP1;P2;durP2;ratioP2
16813;SDS011;8524;57.650;11.926;2023-08-07T00:01:40;2.13;;;1.93;;
16813;SDS011;8524;57.650;11.926;2023-08-07T00:04:07;3.10;;;2.00;;
16813;SDS011;8524;57.650;11.926;2023-08-07T00:06:35;1.90;;;1.80;;
16813;SDS011;8524;57.650;11.926;2023-08-07T00:09:03;2.47;;;1.83;;
16813;SDS011;8524;57.650;11.926;2023-08-07T00:11:30;1.80;;;1.70;;
16813;SDS011;8524;57.650;11.926;2023-08-07T00:13:57;2.83;;;2.40;;
16813;SDS011;8524;57.650;11.926;2023-08-07T00:16:24;1.63;;;1.53;;
16813;SDS011;8524;57.650;11.926;2023-08-07T00:18:51;2.27;;;1.50;;
16813;SDS011;8524;57.650;11.926;2023-08-07T00:21:21;1.60;;;1.50;;
16813;SDS011;8524;57.650;11.926;2023-08-07T00:23:48;1.80;;;1.70;;
16813;SDS011;8524;57.650;11.926;2023-08-07T00:26:17;2.20;;;1.57;;
16813;SDS011;8524;57.650;11.926;2023-08-07T00:28:44;1.83;;;1.57;;
16813;SDS011;8524;57.650;11.926;2023-08-07T00:31:11;2.00;;;1.57;;
16813;SDS011;8524;57.650;11.926;2023-08-07T00:33:38;2.73;;;1.60;;
16813;SDS011;8524;57.650;11.926;2023-08-07T00:36:05;1.77;;;1.67;;
16813;SDS011;8524;57.650;11.926;2023-08-07T00:38:32;1.63;;;1.50;;
16813;SDS011;8524;57.650;11.926;2023-08-07T00:40:59;2.83;;;1.80;;
16813;SDS011;8524;57.650;11.926;2023-08-07T00:43:28;2.30;;;1.80;;
16813;SDS011;8524;57.650;11.926;2023-08-07T00:45:55;1.80;;;1.70;;
16813;SDS011;8524;57.650;11.926;2023-08-07T00:48:22;1.90;;;1.50;;
16813;SDS011;8524;57.650;11.926;2023-08-07T00:50:49;1.58;;;1.48;;
16813;SDS011;8524;57.650;11.926;2023-08-07T00:53:18;2.13;;;1.50;;
16813;SDS011;8524;57.650;11.926;2023-08-07T00:55:45;1.50;;;1.40;;
16813;SDS011;8524;57.650;11.926;2023-08-07T00:58:13;2.07;;;1.87;;
16813;SDS011;8524;57.650;11.926;2023-08-07T01:00:42;3.17;;;1.80;;
16813;SDS011;8524;57.650;11.926;2023-08-07T01:03:09;1.73;;;1.60;;
16813;SDS011;8524;57.650;11.926;2023-08-07T01:05:39;2.83;;;1.60;;
16813;SDS011;8524;57.650;11.926;2023-08-07T01:08:07;1.40;;;1.30;;
16813;SDS011;8524;57.650;11.926;2023-08-07T01:10:36;1.90;;;1.40;;
16813;SDS011;8524;57.650;11.926;2023-08-07T01:13:14;1.60;;;1.40;;
16813;SDS011;8524;57.650;11.926;2023-08-07T01:15:46;2.77;;;1.80;;
16813;SDS011;8524;57.650;11.926;2023-08-07T01:18:15;1.60;;;1.40;;
16813;SDS011;8524;57.650;11.926;2023-08-07T01:20:43;2.37;;;1.40;;
16813;SDS011;8524;57.650;11.926;2023-08-07T01:23:11;1.50;;;1.27;;
16813;SDS011;8524;57.650;11.926;2023-08-07T01:25:38;1.53;;;1.40;;
16813;SDS011;8524;57.650;11.926;2023-08-07T01:28:07;1.87;;;1.20;;
16813;SDS011;8524;57.650;11.926;2023-08-07T01:30:44;1.93;;;1.53;;
16813;SDS011;8524;57.650;11.926;2023-08-07T01:33:16;1.63;;;1.30;;
16813;SDS011;8524;57.650;11.926;2023-08-07T01:35:51;1.67;;;1.20;;
16813;SDS011;8524;57.650;11.926;2023-08-07T01:38:21;2.30;;;1.20;;
16813;SDS011;8524;57.650;11.926;2023-08-07T01:40:50;1.07;;;1.07;;
16813;SDS011;8524;57.650;11.926;2023-08-07T01:43:18;1.20;;;1.10;;
16813;SDS011;8524;57.650;11.926;2023-08-07T01:45:46;1.30;;;1.20;;
16813;SDS011;8524;57.650;11.926;2023-08-07T01:48:13;1.23;;;1.13;;
16813;SDS011;8524;57.650;11.926;2023-08-07T01:50:40;2.13;;;1.30;;
16813;SDS011;8524;57.650;11.926;2023-08-07T01:53:07;1.73;;;1.20;;
16813;SDS011;8524;57.650;11.926;2023-08-07T01:55:36;1.27;;;1.17;;
16813;SDS011;8524;57.650;11.926;2023-08-07T01:58:03;1.23;;;1.13;;
16813;SDS011;8524;57.650;11.926;2023-08-07T02:00:30;1.30;;;1.20;;
16813;SDS011;8524;57.650;11.926;2023-08-07T02:02:57;1.20;;;1.10;;
16813;SDS011;8524;57.650;11.926;2023-08-07T02:05:24;1.60;;;1.20;;
16813;SDS011;8524;57.650;11.926;2023-08-07T02:07:51;1.40;;;1.30;;
16813;SDS011;8524;57.650;11.926;2023-08-07T02:10:21;2.00;;;1.30;;
16813;SDS011;8524;57.650;11.926;2023-08-07T02:12:50;1.20;;;1.10;;
16813;SDS011;8524;57.650;11.926;2023-08-07T02:15:17;1.00;;;0.90;;
16813;SDS011;8524;57.650;11.926;2023-08-07T02:17:44;1.07;;;1.00;;
16813;SDS011;8524;57.650;11.926;2023-08-07T02:20:11;1.43;;;1.27;;
16813;SDS011;8524;57.650;11.926;2023-08-07T02:22:38;1.30;;;1.20;;
16813;SDS011;8524;57.650;11.926;2023-08-07T02:25:05;1.57;;;1.13;;
16813;SDS011;8524;57.650;11.926;2023-08-07T02:27:33;1.90;;;1.30;;
16813;SDS011;8524;57.650;11.926;2023-08-07T02:30:01;2.47;;;1.20;;
16813;SDS011;8524;57.650;11.926;2023-08-07T02:32:29;1.40;;;1.20;;
16813;SDS011;8524;57.650;11.926;2023-08-07T02:34:56;1.57;;;0.80;;
16813;SDS011;8524;57.650;11.926;2023-08-07T02:37:23;1.30;;;1.20;;
16813;SDS011;8524;57.650;11.926;2023-08-07T02:39:50;0.87;;;0.80;;
16813;SDS011;8524;57.650;11.926;2023-08-07T02:42:18;1.57;;;0.80;;
16813;SDS011;8524;57.650;11.926;2023-08-07T02:44:45;1.17;;;0.90;;
16813;SDS011;8524;57.650;11.926;2023-08-07T02:47:14;0.90;;;0.90;;
16813;SDS011;8524;57.650;11.926;2023-08-07T02:49:41;0.80;;;0.77;;
16813;SDS011;8524;57.650;11.926;2023-08-07T02:52:08;0.80;;;0.80;;
16813;SDS011;8524;57.650;11.926;2023-08-07T02:54:35;0.97;;;0.87;;
16813;SDS011;8524;57.650;11.926;2023-08-07T02:57:02;1.00;;;0.87;;
16813;SDS011;8524;57.650;11.926;2023-08-07T02:59:29;1.00;;;0.90;;
16813;SDS011;8524;57.650;11.926;2023-08-07T03:01:56;0.80;;;0.80;;
16813;SDS011;8524;57.650;11.926;2023-08-07T03:04:24;0.80;;;0.77;;
16813;SDS011;8524;57.650;11.926;2023-08-07T03:06:51;0.70;;;0.70;;
16813;SDS011;8524;57.650;11.926;2023-08-07T03:09:19;0.70;;;0.70;;
16813;SDS011;8524;57.650;11.926;2023-08-07T03:11:46;0.83;;;0.70;;
16813;SDS011;8524;57.650;11.926;2023-08-07T03:14:13;0.63;;;0.63;;
16813;SDS011;8524;57.650;11.926;2023-08-07T03:16:40;0.70;;;0.67;;
16813;SDS011;8524;57.650;11.926;2023-08-07T03:19:07;1.77;;;1.00;;
16813;SDS011;8524;57.650;11.926;2023-08-07T03:21:36;1.10;;;0.80;;
16813;SDS011;8524;57.650;11.926;2023-08-07T03:24:04;1.47;;;0.83;;
16813;SDS011;8524;57.650;11.926;2023-08-07T03:26:31;0.70;;;0.60;;
16813;SDS011;8524;57.650;11.926;2023-08-07T03:28:58;0.80;;;0.80;;
16813;SDS011;8524;57.650;11.926;2023-08-07T03:31:25;0.67;;;0.67;;
16813;SDS011;8524;57.650;11.926;2023-08-07T03:33:52;0.70;;;0.70;;
16813;SDS011;8524;57.650;11.926;2023-08-07T03:36:19;0.70;;;0.70;;
16813;SDS011;8524;57.650;11.926;2023-08-07T03:38:48;0.87;;;0.63;;
16813;SDS011;8524;57.650;11.926;2023-08-07T03:41:15;0.57;;;0.50;;
16813;SDS011;8524;57.650;11.926;2023-08-07T03:43:42;0.60;;;0.60;;
16813;SDS011;8524;57.650;11.926;2023-08-07T03:46:09;0.70;;;0.70;;
16813;SDS011;8524;57.650;11.926;2023-08-07T03:48:36;0.80;;;0.70;;
16813;SDS011;8524;57.650;11.926;2023-08-07T03:51:04;0.80;;;0.80;;
16813;SDS011;8524;57.650;11.926;2023-08-07T03:53:33;1.07;;;0.73;;
16813;SDS011;8524;57.650;11.926;2023-08-07T03:56:01;1.00;;;0.77;;
16813;SDS011;8524;57.650;11.926;2023-08-07T03:58:29;1.17;;;0.83;;
16813;SDS011;8524;57.650;11.926;2023-08-07T04:00:56;1.43;;;0.80;;
16813;SDS011;8524;57.650;11.926;2023-08-07T04:03:23;0.73;;;0.73;;
16813;SDS011;8524;57.650;11.926;2023-08-07T04:05:51;0.70;;;0.70;;
16813;SDS011;8524;57.650;11.926;2023-08-07T04:08:19;1.63;;;0.80;;
16813;SDS011;8524;57.650;11.926;2023-08-07T04:10:52;0.70;;;0.60;;
16813;SDS011;8524;57.650;11.926;2023-08-07T04:13:25;1.42;;;0.80;;
16813;SDS011;8524;57.650;11.926;2023-08-07T04:15:53;0.87;;;0.70;;
16813;SDS011;8524;57.650;11.926;2023-08-07T04:18:20;1.33;;;0.90;;
16813;SDS011;8524;57.650;11.926;2023-08-07T04:20:48;1.97;;;0.67;;
16813;SDS011;8524;57.650;11.926;2023-08-07T04:23:16;0.70;;;0.67;;
16813;SDS011;8524;57.650;11.926;2023-08-07T04:25:43;1.07;;;0.70;;
16813;SDS011;8524;57.650;11.926;2023-08-07T04:28:11;0.50;;;0.50;;
16813;SDS011;8524;57.650;11.926;2023-08-07T04:30:40;0.80;;;0.80;;
16813;SDS011;8524;57.650;11.926;2023-08-07T04:33:08;1.17;;;0.53;;
16813;SDS011;8524;57.650;11.926;2023-08-07T04:35:35;0.83;;;0.83;;
16813;SDS011;8524;57.650;11.926;2023-08-07T04:38:02;0.80;;;0.60;;
16813;SDS011;8524;57.650;11.926;2023-08-07T04:40:29;0.70;;;0.70;;
16813;SDS011;8524;57.650;11.926;2023-08-07T04:42:56;1.13;;;0.50;;
16813;SDS011;8524;57.650;11.926;2023-08-07T04:45:23;0.70;;;0.50;;
16813;SDS011;8524;57.650;11.926;2023-08-07T04:47:51;1.10;;;0.43;;
16813;SDS011;8524;57.650;11.926;2023-08-07T04:50:18;0.87;;;0.57;;
16813;SDS011;8524;57.650;11.926;2023-08-07T04:52:45;0.80;;;0.60;;
16813;SDS011;8524;57.650;11.926;2023-08-07T04:55:12;0.73;;;0.60;;
16813;SDS011;8524;57.650;11.926;2023-08-07T04:57:39;0.40;;;0.40;;
16813;SDS011;8524;57.650;11.926;2023-08-07T05:00:07;0.80;;;0.80;;
16813;SDS011;8524;57.650;11.926;2023-08-07T05:02:35;1.00;;;0.70;;
16813;SDS011;8524;57.650;11.926;2023-08-07T05:05:04;0.80;;;0.80;;
16813;SDS011;8524;57.650;11.926;2023-08-07T05:07:33;0.60;;;0.60;;
16813;SDS011;8524;57.650;11.926;2023-08-07T05:10:01;0.67;;;0.60;;
16813;SDS011;8524;57.650;11.926;2023-08-07T05:12:29;0.80;;;0.80;;
16813;SDS011;8524;57.650;11.926;2023-08-07T05:14:56;0.70;;;0.57;;
16813;SDS011;8524;57.650;11.926;2023-08-07T05:17:23;0.83;;;0.83;;
16813;SDS011;8524;57.650;11.926;2023-08-07T05:19:50;0.83;;;0.83;;
16813;SDS011;8524;57.650;11.926;2023-08-07T05:22:19;0.67;;;0.67;;
16813;SDS011;8524;57.650;11.926;2023-08-07T05:24:46;0.83;;;0.80;;
16813;SDS011;8524;57.650;11.926;2023-08-07T05:27:13;1.00;;;0.90;;
16813;SDS011;8524;57.650;11.926;2023-08-07T05:29:40;1.23;;;0.70;;
16813;SDS011;8524;57.650;11.926;2023-08-07T05:32:09;0.87;;;0.80;;
16813;SDS011;8524;57.650;11.926;2023-08-07T05:34:36;0.83;;;0.83;;
16813;SDS011;8524;57.650;11.926;2023-08-07T05:37:04;0.73;;;0.70;;
16813;SDS011;8524;57.650;11.926;2023-08-07T05:39:34;1.80;;;1.10;;
16813;SDS011;8524;57.650;11.926;2023-08-07T05:42:02;1.50;;;0.73;;
16813;SDS011;8524;57.650;11.926;2023-08-07T05:44:29;1.37;;;0.90;;
16813;SDS011;8524;57.650;11.926;2023-08-07T05:46:56;1.13;;;0.90;;
16813;SDS011;8524;57.650;11.926;2023-08-07T05:49:23;1.60;;;0.70;;
16813;SDS011;8524;57.650;11.926;2023-08-07T05:51:50;1.17;;;1.07;;
16813;SDS011;8524;57.650;11.926;2023-08-07T05:54:17;0.93;;;0.87;;
16813;SDS011;8524;57.650;11.926;2023-08-07T05:56:46;1.50;;;0.70;;
16813;SDS011;8524;57.650;11.926;2023-08-07T05:59:13;1.10;;;0.87;;
16813;SDS011;8524;57.650;11.926;2023-08-07T06:01:41;1.10;;;0.73;;
16813;SDS011;8524;57.650;11.926;2023-08-07T06:04:08;1.47;;;0.83;;
16813;SDS011;8524;57.650;11.926;2023-08-07T06:06:35;1.10;;;0.70;;
16813;SDS011;8524;57.650;11.926;2023-08-07T06:09:04;1.13;;;0.80;;
16813;SDS011;8524;57.650;11.926;2023-08-07T06:11:31;1.70;;;0.63;;
16813;SDS011;8524;57.650;11.926;2023-08-07T06:14:02;1.37;;;0.70;;
16813;SDS011;8524;57.650;11.926;2023-08-07T06:16:29;0.80;;;0.80;;
16813;SDS011;8524;57.650;11.926;2023-08-07T06:18:56;1.00;;;0.90;;
16813;SDS011;8524;57.650;11.926;2023-08-07T06:21:24;0.60;;;0.60;;
16813;SDS011;8524;57.650;11.926;2023-08-07T06:23:53;0.60;;;0.60;;
16813;SDS011;8524;57.650;11.926;2023-08-07T06:26:20;0.40;;;0.40;;
16813;SDS011;8524;57.650;11.926;2023-08-07T06:28:47;0.73;;;0.73;;
16813;SDS011;8524;57.650;11.926;2023-08-07T06:31:16;1.83;;;1.00;;
16813;SDS011;8524;57.650;11.926;2023-08-07T06:33:44;1.27;;;0.93;;
16813;SDS011;8524;57.650;11.926;2023-08-07T06:36:11;1.30;;;0.90;;
16813;SDS011;8524;57.650;11.926;2023-08-07T06:38:38;0.93;;;0.93;;
16813;SDS011;8524;57.650;11.926;2023-08-07T06:41:05;1.00;;;1.00;;
16813;SDS011;8524;57.650;11.926;2023-08-07T06:43:32;0.70;;;0.70;;
16813;SDS011;8524;57.650;11.926;2023-08-07T06:45:59;0.73;;;0.60;;
16813;SDS011;8524;57.650;11.926;2023-08-07T06:48:27;0.73;;;0.50;;
16813;SDS011;8524;57.650;11.926;2023-08-07T06:50:54;0.93;;;0.50;;
16813;SDS011;8524;57.650;11.926;2023-08-07T06:53:21;0.50;;;0.50;;
16813;SDS011;8524;57.650;11.926;2023-08-07T06:55:48;1.10;;;0.50;;
16813;SDS011;8524;57.650;11.926;2023-08-07T06:58:16;0.40;;;0.40;;
16813;SDS011;8524;57.650;11.926;2023-08-07T07:00:43;0.70;;;0.50;;
16813;SDS011;8524;57.650;11.926;2023-08-07T07:03:11;0.50;;;0.50;;
16813;SDS011;8524;57.650;11.926;2023-08-07T07:05:40;0.63;;;0.50;;
16813;SDS011;8524;57.650;11.926;2023-08-07T07:08:08;1.27;;;0.80;;
16813;SDS011;8524;57.650;11.926;2023-08-07T07:10:35;1.10;;;1.00;;
16813;SDS011;8524;57.650;11.926;2023-08-07T07:13:02;1.20;;;1.10;;
16813;SDS011;8524;57.650;11.926;2023-08-07T07:15:29;1.00;;;0.90;;
16813;SDS011;8524;57.650;11.926;2023-08-07T07:17:56;1.50;;;0.95;;
16813;SDS011;8524;57.650;11.926;2023-08-07T07:20:23;1.70;;;0.93;;
16813;SDS011;8524;57.650;11.926;2023-08-07T07:22:51;0.80;;;0.80;;
16813;SDS011;8524;57.650;11.926;2023-08-07T07:25:19;0.70;;;0.70;;
16813;SDS011;8524;57.650;11.926;2023-08-07T07:27:46;1.67;;;0.70;;
16813;SDS011;8524;57.650;11.926;2023-08-07T07:30:13;0.50;;;0.50;;
16813;SDS011;8524;57.650;11.926;2023-08-07T07:32:40;0.50;;;0.50;;
16813;SDS011;8524;57.650;11.926;2023-08-07T07:35:07;1.03;;;0.63;;
16813;SDS011;8524;57.650;11.926;2023-08-07T07:37:35;0.60;;;0.60;;
16813;SDS011;8524;57.650;11.926;2023-08-07T07:40:03;0.60;;;0.60;;
16813;SDS011;8524;57.650;11.926;2023-08-07T07:42:31;1.23;;;0.60;;
16813;SDS011;8524;57.650;11.926;2023-08-07T07:44:58;0.80;;;0.37;;
16813;SDS011;8524;57.650;11.926;2023-08-07T07:47:25;0.97;;;0.60;;
16813;SDS011;8524;57.650;11.926;2023-08-07T07:50:04;0.87;;;0.47;;
16813;SDS011;8524;57.650;11.926;2023-08-07T07:52:33;1.13;;;0.80;;
16813;SDS011;8524;57.650;11.926;2023-08-07T07:55:00;0.80;;;0.80;;
16813;SDS011;8524;57.650;11.926;2023-08-07T07:57:29;0.70;;;0.70;;
16813;SDS011;8524;57.650;11.926;2023-08-07T07:59:56;1.57;;;1.10;;
16813;SDS011;8524;57.650;11.926;2023-08-07T08:02:23;0.90;;;0.90;;
16813;SDS011;8524;57.650;11.926;2023-08-07T08:04:51;1.00;;;1.00;;
16813;SDS011;8524;57.650;11.926;2023-08-07T08:07:18;1.93;;;1.23;;
16813;SDS011;8524;57.650;11.926;2023-08-07T08:09:45;1.20;;;1.10;;
16813;SDS011;8524;57.650;11.926;2023-08-07T08:12:12;1.60;;;1.50;;
16813;SDS011;8524;57.650;11.926;2023-08-07T08:14:41;1.67;;;1.50;;
16813;SDS011;8524;57.650;11.926;2023-08-07T08:17:08;1.30;;;1.20;;
16813;SDS011;8524;57.650;11.926;2023-08-07T08:19:35;1.53;;;1.10;;
16813;SDS011;8524;57.650;11.926;2023-08-07T08:22:02;0.90;;;0.90;;
16813;SDS011;8524;57.650;11.926;2023-08-07T08:24:30;1.37;;;1.20;;
16813;SDS011;8524;57.650;11.926;2023-08-07T08:26:58;0.80;;;0.80;;
16813;SDS011;8524;57.650;11.926;2023-08-07T08:29:25;0.67;;;0.60;;
16813;SDS011;8524;57.650;11.926;2023-08-07T08:31:54;0.70;;;0.70;;
16813;SDS011;8524;57.650;11.926;2023-08-07T08:34:21;0.70;;;0.70;;
16813;SDS011;8524;57.650;11.926;2023-08-07T08:36:48;0.77;;;0.77;;
16813;SDS011;8524;57.650;11.926;2023-08-07T08:39:15;1.00;;;1.00;;
16813;SDS011;8524;57.650;11.926;2023-08-07T08:41:42;0.80;;;0.70;;
16813;SDS011;8524;57.650;11.926;2023-08-07T08:44:13;2.33;;;0.87;;
16813;SDS011;8524;57.650;11.926;2023-08-07T08:46:42;1.17;;;0.90;;
16813;SDS011;8524;57.650;11.926;2023-08-07T08:49:11;0.80;;;0.80;;
16813;SDS011;8524;57.650;11.926;2023-08-07T08:51:42;1.00;;;1.00;;
16813;SDS011;8524;57.650;11.926;2023-08-07T08:54:09;1.10;;;1.00;;
16813;SDS011;8524;57.650;11.926;2023-08-07T08:56:37;0.97;;;0.93;;
16813;SDS011;8524;57.650;11.926;2023-08-07T08:59:04;0.90;;;0.90;;
16813;SDS011;8524;57.650;11.926;2023-08-07T09:01:31;0.70;;;0.70;;
16813;SDS011;8524;57.650;11.926;2023-08-07T09:03:59;1.93;;;1.73;;
16813;SDS011;8524;57.650;11.926;2023-08-07T09:06:31;1.60;;;1.50;;
16813;SDS011;8524;57.650;11.926;2023-08-07T09:08:58;1.80;;;1.70;;
16813;SDS011;8524;57.650;11.926;2023-08-07T09:11:27;1.40;;;1.30;;
16813;SDS011;8524;57.650;11.926;2023-08-07T09:13:55;1.93;;;1.33;;
16813;SDS011;8524;57.650;11.926;2023-08-07T09:16:23;2.47;;;1.40;;
16813;SDS011;8524;57.650;11.926;2023-08-07T09:18:51;1.80;;;1.53;;
16813;SDS011;8524;57.650;11.926;2023-08-07T09:21:19;1.70;;;1.60;;
16813;SDS011;8524;57.650;11.926;2023-08-07T09:23:48;2.17;;;2.00;;
16813;SDS011;8524;57.650;11.926;2023-08-07T09:26:16;2.47;;;2.27;;
16813;SDS011;8524;57.650;11.926;2023-08-07T09:28:50;2.43;;;2.23;;
16813;SDS011;8524;57.650;11.926;2023-08-07T09:31:19;2.43;;;2.07;;
16813;SDS011;8524;57.650;11.926;2023-08-07T09:33:46;1.17;;;1.13;;
16813;SDS011;8524;57.650;11.926;2023-08-07T09:36:15;1.40;;;1.30;;
16813;SDS011;8524;57.650;11.926;2023-08-07T09:38:43;1.50;;;1.40;;
16813;SDS011;8524;57.650;11.926;2023-08-07T09:41:18;3.93;;;1.40;;
16813;SDS011;8524;57.650;11.926;2023-08-07T09:43:45;1.50;;;1.07;;
16813;SDS011;8524;57.650;11.926;2023-08-07T09:46:12;1.30;;;1.20;;
16813;SDS011;8524;57.650;11.926;2023-08-07T09:48:40;0.97;;;0.97;;
16813;SDS011;8524;57.650;11.926;2023-08-07T09:51:08;1.27;;;1.00;;
16813;SDS011;8524;57.650;11.926;2023-08-07T09:53:35;1.10;;;1.00;;
16813;SDS011;8524;57.650;11.926;2023-08-07T09:56:02;0.80;;;0.80;;
16813;SDS011;8524;57.650;11.926;2023-08-07T09:58:31;1.50;;;0.97;;
16813;SDS011;8524;57.650;11.926;2023-08-07T10:01:01;1.20;;;0.90;;
16813;SDS011;8524;57.650;11.926;2023-08-07T10:03:31;0.90;;;0.90;;
16813;SDS011;8524;57.650;11.926;2023-08-07T10:05:58;1.03;;;0.93;;
16813;SDS011;8524;57.650;11.926;2023-08-07T10:08:25;1.07;;;0.97;;
16813;SDS011;8524;57.650;11.926;2023-08-07T10:10:52;1.53;;;1.10;;
16813;SDS011;8524;57.650;11.926;2023-08-07T10:13:19;1.10;;;0.90;;
16813;SDS011;8524;57.650;11.926;2023-08-07T10:15:50;1.57;;;0.93;;
16813;SDS011;8524;57.650;11.926;2023-08-07T10:18:17;0.87;;;0.87;;
16813;SDS011;8524;57.650;11.926;2023-08-07T10:20:46;1.00;;;0.80;;
16813;SDS011;8524;57.650;11.926;2023-08-07T10:23:14;1.03;;;1.00;;
16813;SDS011;8524;57.650;11.926;2023-08-07T10:25:43;1.30;;;1.00;;
16813;SDS011;8524;57.650;11.926;2023-08-07T10:28:13;1.00;;;0.83;;
16813;SDS011;8524;57.650;11.926;2023-08-07T10:30:44;1.20;;;0.90;;
16813;SDS011;8524;57.650;11.926;2023-08-07T10:33:13;1.37;;;1.00;;
16813;SDS011;8524;57.650;11.926;2023-08-07T10:35:44;0.80;;;0.80;;
16813;SDS011;8524;57.650;11.926;2023-08-07T10:38:13;1.07;;;0.80;;
16813;SDS011;8524;57.650;11.926;2023-08-07T10:41:05;1.00;;;0.90;;
16813;SDS011;8524;57.650;11.926;2023-08-07T10:43:36;1.00;;;0.90;;
16813;SDS011;8524;57.650;11.926;2023-08-07T10:46:03;1.03;;;0.93;;
16813;SDS011;8524;57.650;11.926;2023-08-07T10:48:38;1.43;;;0.90;;
16813;SDS011;8524;57.650;11.926;2023-08-07T10:51:07;1.30;;;1.20;;
16813;SDS011;8524;57.650;11.926;2023-08-07T10:53:35;2.47;;;1.60;;
16813;SDS011;8524;57.650;11.926;2023-08-07T10:56:04;2.20;;;1.55;;
16813;SDS011;8524;57.650;11.926;2023-08-07T10:58:34;1.40;;;1.30;;
16813;SDS011;8524;57.650;11.926;2023-08-07T11:01:18;1.97;;;1.77;;
16813;SDS011;8524;57.650;11.926;2023-08-07T11:03:49;2.27;;;1.30;;
16813;SDS011;8524;57.650;11.926;2023-08-07T11:06:17;1.73;;;1.63;;
16813;SDS011;8524;57.650;11.926;2023-08-07T11:08:47;2.77;;;1.80;;
16813;SDS011;8524;57.650;11.926;2023-08-07T11:11:17;2.03;;;1.50;;
16813;SDS011;8524;57.650;11.926;2023-08-07T11:13:44;1.53;;;1.43;;
16813;SDS011;8524;57.650;11.926;2023-08-07T11:16:11;2.13;;;1.93;;
16813;SDS011;8524;57.650;11.926;2023-08-07T11:18:39;1.97;;;1.60;;
16813;SDS011;8524;57.650;11.926;2023-08-07T11:21:08;1.50;;;1.37;;
16813;SDS011;8524;57.650;11.926;2023-08-07T11:23:36;2.40;;;2.03;;
16813;SDS011;8524;57.650;11.926;2023-08-07T11:26:03;1.80;;;1.70;;
16813;SDS011;8524;57.650;11.926;2023-08-07T11:28:31;2.67;;;2.00;;
16813;SDS011;8524;57.650;11.926;2023-08-07T11:30:58;3.30;;;1.97;;
16813;SDS011;8524;57.650;11.926;2023-08-07T11:33:25;1.83;;;1.67;;
16813;SDS011;8524;57.650;11.926;2023-08-07T11:35:54;1.57;;;1.47;;
16813;SDS011;8524;57.650;11.926;2023-08-07T11:38:33;2.37;;;1.83;;
16813;SDS011;8524;57.650;11.926;2023-08-07T11:41:01;2.43;;;2.10;;
16813;SDS011;8524;57.650;11.926;2023-08-07T11:43:30;2.70;;;2.23;;
16813;SDS011;8524;57.650;11.926;2023-08-07T11:45:59;2.80;;;2.37;;
16813;SDS011;8524;57.650;11.926;2023-08-07T11:48:29;2.60;;;2.10;;
16813;SDS011;8524;57.650;11.926;2023-08-07T11:50:57;2.67;;;2.13;;
16813;SDS011;8524;57.650;11.926;2023-08-07T11:53:26;3.33;;;2.10;;
16813;SDS011;8524;57.650;11.926;2023-08-07T11:55:56;1.90;;;1.70;;
16813;SDS011;8524;57.650;11.926;2023-08-07T11:58:25;2.45;;;2.08;;
16813;SDS011;8524;57.650;11.926;2023-08-07T12:00:53;2.60;;;2.40;;
16813;SDS011;8524;57.650;11.926;2023-08-07T12:03:24;4.23;;;2.33;;
16813;SDS011;8524;57.650;11.926;2023-08-07T12:05:53;4.13;;;2.20;;
16813;SDS011;8524;57.650;11.926;2023-08-07T12:08:21;3.40;;;2.50;;
16813;SDS011;8524;57.650;11.926;2023-08-07T12:10:49;3.97;;;2.37;;
16813;SDS011;8524;57.650;11.926;2023-08-07T12:13:19;2.63;;;2.20;;
16813;SDS011;8524;57.650;11.926;2023-08-07T12:15:50;2.63;;;2.13;;
16813;SDS011;8524;57.650;11.926;2023-08-07T12:18:19;2.93;;;2.47;;
16813;SDS011;8524;57.650;11.926;2023-08-07T12:20:48;3.63;;;2.50;;
16813;SDS011;8524;57.650;11.926;2023-08-07T12:23:16;2.93;;;2.30;;
16813;SDS011;8524;57.650;11.926;2023-08-07T12:25:43;3.13;;;2.07;;
16813;SDS011;8524;57.650;11.926;2023-08-07T12:28:10;3.07;;;2.20;;
16813;SDS011;8524;57.650;11.926;2023-08-07T12:30:39;5.47;;;2.77;;
16813;SDS011;8524;57.650;11.926;2023-08-07T12:33:06;3.10;;;2.40;;
16813;SDS011;8524;57.650;11.926;2023-08-07T12:35:33;2.70;;;2.00;;
16813;SDS011;8524;57.650;11.926;2023-08-07T12:38:00;3.93;;;2.20;;
16813;SDS011;8524;57.650;11.926;2023-08-07T12:40:28;3.07;;;1.87;;
16813;SDS011;8524;57.650;11.926;2023-08-07T12:42:55;3.63;;;1.80;;
16813;SDS011;8524;57.650;11.926;2023-08-07T12:45:22;3.60;;;2.00;;
16813;SDS011;8524;57.650;11.926;2023-08-07T12:47:51;4.73;;;1.97;;
16813;SDS011;8524;57.650;11.926;2023-08-07T12:50:18;3.17;;;2.17;;
16813;SDS011;8524;57.650;11.926;2023-08-07T12:52:45;2.90;;;1.70;;
16813;SDS011;8524;57.650;11.926;2023-08-07T12:55:12;2.47;;;1.67;;
16813;SDS011;8524;57.650;11.926;2023-08-07T12:57:40;2.93;;;1.63;;
16813;SDS011;8524;57.650;11.926;2023-08-07T13:00:08;2.33;;;1.77;;
16813;SDS011;8524;57.650;11.926;2023-08-07T13:02:37;3.07;;;1.50;;
16813;SDS011;8524;57.650;11.926;2023-08-07T13:05:06;2.70;;;1.60;;
16813;SDS011;8524;57.650;11.926;2023-08-07T13:07:35;2.78;;;1.70;;
16813;SDS011;8524;57.650;11.926;2023-08-07T13:10:04;2.77;;;1.77;;
16813;SDS011;8524;57.650;11.926;2023-08-07T13:12:33;1.83;;;1.60;;
16813;SDS011;8524;57.650;11.926;2023-08-07T13:15:01;1.97;;;1.40;;
16813;SDS011;8524;57.650;11.926;2023-08-07T13:17:28;2.53;;;1.40;;
16813;SDS011;8524;57.650;11.926;2023-08-07T13:19:55;2.27;;;1.50;;
16813;SDS011;8524;57.650;11.926;2023-08-07T13:22:24;3.07;;;1.63;;
16813;SDS011;8524;57.650;11.926;2023-08-07T13:24:52;2.60;;;1.60;;
16813;SDS011;8524;57.650;11.926;2023-08-07T13:27:19;2.17;;;1.47;;
16813;SDS011;8524;57.650;11.926;2023-08-07T13:29:46;2.87;;;1.40;;
16813;SDS011;8524;57.650;11.926;2023-08-07T13:32:14;1.43;;;1.33;;
16813;SDS011;8524;57.650;11.926;2023-08-07T13:34:43;1.43;;;1.20;;
16813;SDS011;8524;57.650;11.926;2023-08-07T13:37:10;2.13;;;1.70;;
16813;SDS011;8524;57.650;11.926;2023-08-07T13:39:39;2.08;;;1.50;;
16813;SDS011;8524;57.650;11.926;2023-08-07T13:42:06;5.63;;;1.40;;
16813;SDS011;8524;57.650;11.926;2023-08-07T13:44:35;1.90;;;1.23;;
16813;SDS011;8524;57.650;11.926;2023-08-07T13:47:02;1.33;;;1.00;;
16813;SDS011;8524;57.650;11.926;2023-08-07T13:49:30;1.53;;;1.13;;
16813;SDS011;8524;57.650;11.926;2023-08-07T13:51:57;4.40;;;1.50;;
16813;SDS011;8524;57.650;11.926;2023-08-07T13:54:24;1.70;;;1.25;;
16813;SDS011;8524;57.650;11.926;2023-08-07T13:56:52;1.97;;;1.30;;
16813;SDS011;8524;57.650;11.926;2023-08-07T13:59:20;1.50;;;1.07;;
16813;SDS011;8524;57.650;11.926;2023-08-07T14:01:47;1.87;;;1.17;;
16813;SDS011;8524;57.650;11.926;2023-08-07T14:04:14;2.60;;;1.00;;
16813;SDS011;8524;57.650;11.926;2023-08-07T14:06:41;2.27;;;1.03;;
16813;SDS011;8524;57.650;11.926;2023-08-07T14:09:09;2.07;;;0.93;;
16813;SDS011;8524;57.650;11.926;2023-08-07T14:11:37;2.53;;;1.20;;
16813;SDS011;8524;57.650;11.926;2023-08-07T14:14:05;3.60;;;1.40;;
16813;SDS011;8524;57.650;11.926;2023-08-07T14:16:33;1.93;;;1.20;;
16813;SDS011;8524;57.650;11.926;2023-08-07T14:18:59;1.77;;;1.10;;
16813;SDS011;8524;57.650;11.926;2023-08-07T14:21:27;2.20;;;1.33;;
16813;SDS011;8524;57.650;11.926;2023-08-07T14:23:54;3.25;;;1.65;;
16813;SDS011;8524;57.650;11.926;2023-08-07T14:26:21;3.50;;;1.63;;
16813;SDS011;8524;57.650;11.926;2023-08-07T14:28:48;4.70;;;1.60;;
16813;SDS011;8524;57.650;11.926;2023-08-07T14:31:17;2.77;;;1.50;;
16813;SDS011;8524;57.650;11.926;2023-08-07T14:33:44;3.37;;;1.30;;
16813;SDS011;8524;57.650;11.926;2023-08-07T14:36:11;1.90;;;1.13;;
16813;SDS011;8524;57.650;11.926;2023-08-07T14:38:39;3.37;;;1.30;;
16813;SDS011;8524;57.650;11.926;2023-08-07T14:41:07;2.73;;;1.00;;
16813;SDS011;8524;57.650;11.926;2023-08-07T14:43:34;3.60;;;1.23;;
16813;SDS011;8524;57.650;11.926;2023-08-07T14:46:01;3.10;;;0.80;;
16813;SDS011;8524;57.650;11.926;2023-08-07T14:48:29;2.33;;;1.00;;
16813;SDS011;8524;57.650;11.926;2023-08-07T14:50:57;1.90;;;0.77;;
16813;SDS011;8524;57.650;11.926;2023-08-07T14:53:24;1.53;;;0.70;;